createdAt,value
2019-04-14T00:01:35.093Z,4.13
2019-04-14T00:04:01.085Z,3.67
2019-04-14T00:06:27.180Z,3.53
2019-04-14T00:08:54.259Z,3.10
2019-04-14T00:11:19.341Z,4.03
2019-04-14T00:13:45.676Z,3.67
2019-04-14T00:16:11.726Z,3.93
2019-04-14T00:18:38.280Z,3.50
2019-04-14T00:21:04.448Z,4.20
2019-04-14T00:23:30.431Z,4.00
2019-04-14T00:25:56.483Z,3.40
2019-04-14T00:28:22.882Z,4.03
2019-04-14T00:30:49.179Z,3.73
2019-04-14T00:33:15.186Z,3.87
2019-04-14T00:35:41.174Z,3.67
2019-04-14T00:38:08.402Z,4.30
2019-04-14T00:40:34.563Z,4.10
2019-04-14T00:43:00.489Z,4.13
2019-04-14T00:45:34.045Z,3.23
2019-04-14T00:47:59.497Z,4.20
2019-04-14T00:50:17.399Z,4.17
2019-04-14T00:52:44.146Z,3.40
2019-04-14T00:55:10.131Z,4.13
2019-04-14T00:57:37.668Z,4.20
2019-04-14T01:00:03.868Z,4.50
2019-04-14T01:02:29.867Z,4.50
2019-04-14T01:04:57.644Z,4.30
2019-04-14T01:07:24.034Z,4.20
2019-04-14T01:09:48.904Z,4.30
2019-04-14T01:12:14.919Z,4.43
2019-04-14T01:14:41.491Z,3.93
2019-04-14T01:17:07.463Z,4.30
2019-04-14T01:19:33.460Z,3.70
2019-04-14T01:21:59.439Z,4.30
2019-04-14T01:26:57.330Z,4.00
2019-04-14T01:29:23.396Z,5.23
2019-04-14T01:31:49.427Z,3.67
2019-04-14T01:34:15.440Z,4.63
2019-04-14T01:36:41.413Z,4.77
2019-04-14T01:39:07.433Z,4.10
2019-04-14T01:41:34.601Z,4.23
2019-04-14T01:44:00.310Z,4.43
2019-04-14T01:46:29.687Z,4.67
2019-04-14T01:48:52.307Z,4.57
2019-04-14T01:51:20.176Z,5.10
2019-04-14T01:53:45.121Z,4.10
2019-04-14T01:56:12.257Z,4.73
2019-04-14T01:58:38.179Z,4.93
2019-04-14T02:01:04.104Z,4.27
2019-04-14T02:03:30.216Z,4.13
2019-04-14T02:05:56.162Z,3.80
2019-04-14T02:08:22.080Z,3.90
2019-04-14T02:10:48.066Z,3.70
2019-04-14T02:13:14.072Z,4.13
2019-04-14T02:15:40.073Z,4.83
2019-04-14T02:18:06.069Z,4.80
2019-04-14T02:20:32.071Z,4.03
2019-04-14T02:22:58.080Z,4.63
2019-04-14T02:25:25.268Z,3.87
2019-04-14T02:27:51.480Z,4.57
2019-04-14T02:30:20.792Z,3.77
2019-04-14T02:33:13.877Z,4.47
2019-04-14T02:35:42.029Z,3.47
2019-04-14T02:38:17.666Z,4.93
2019-04-14T02:40:47.382Z,4.97
2019-04-14T02:52:46.934Z,4.13
2019-04-14T02:57:30.289Z,4.10
2019-04-14T02:59:58.465Z,3.10
2019-04-14T03:02:30.547Z,4.47
2019-04-14T03:04:50.866Z,4.43
2019-04-14T03:07:28.199Z,3.97
2019-04-14T03:09:41.813Z,4.33
2019-04-14T03:12:25.076Z,4.17
2019-04-14T03:17:16.162Z,3.57
2019-04-14T03:19:25.040Z,4.73
2019-04-14T03:21:49.150Z,4.93
2019-04-14T03:24:24.185Z,3.80
2019-04-14T03:26:41.884Z,3.63
2019-04-14T03:29:10.739Z,3.27
2019-04-14T03:34:30.537Z,4.40
2019-04-14T03:39:00.195Z,4.50
2019-04-14T03:41:25.742Z,3.60
2019-04-14T03:43:41.556Z,3.77
2019-04-14T03:46:21.443Z,3.70
2019-04-14T03:51:10.376Z,4.20
2019-04-14T03:55:40.103Z,3.73
2019-04-14T03:57:59.035Z,3.90
2019-04-14T04:00:27.001Z,3.87
2019-04-14T04:02:51.855Z,4.53
2019-04-14T04:05:17.883Z,3.60
2019-04-14T04:07:43.892Z,4.43
2019-04-14T04:10:09.930Z,3.57
2019-04-14T04:12:35.931Z,5.10
2019-04-14T04:15:02.012Z,4.33
2019-04-14T04:17:29.694Z,4.70
2019-04-14T04:19:55.603Z,4.10
2019-04-14T04:22:21.608Z,4.73
2019-04-14T04:24:47.634Z,4.23
2019-04-14T04:27:13.617Z,4.43
2019-04-14T04:29:39.806Z,4.20
2019-04-14T04:32:05.762Z,4.97
2019-04-14T04:34:31.741Z,3.87
2019-04-14T04:36:57.742Z,4.37
2019-04-14T04:39:23.726Z,3.40
2019-04-14T04:41:49.732Z,4.03
2019-04-14T04:44:15.911Z,4.43
2019-04-14T04:46:41.805Z,3.87
2019-04-14T04:49:14.189Z,3.47
2019-04-14T04:51:33.838Z,4.33
2019-04-14T04:53:59.805Z,3.63
2019-04-14T04:56:25.844Z,4.07
2019-04-14T04:58:52.581Z,4.47
2019-04-14T05:01:18.833Z,4.97
2019-04-14T05:03:44.968Z,3.67
2019-04-14T05:06:11.308Z,4.47
2019-04-14T05:08:36.996Z,4.13
2019-04-14T05:11:03.281Z,4.57
2019-04-14T05:13:29.227Z,4.67
2019-04-14T05:15:55.294Z,4.27
2019-04-14T05:18:22.107Z,5.60
2019-04-14T05:20:47.083Z,4.63
2019-04-14T05:23:13.131Z,4.77
2019-04-14T05:25:39.107Z,4.10
2019-04-14T05:28:05.099Z,4.90
2019-04-14T05:30:32.778Z,4.20
2019-04-14T05:32:58.734Z,4.27
2019-04-14T05:35:24.858Z,4.17
2019-04-14T05:37:50.748Z,4.10
2019-04-14T05:40:16.793Z,4.73
2019-04-14T05:42:42.820Z,4.20
2019-04-14T05:45:08.814Z,3.77
2019-04-14T05:47:35.011Z,4.73
2019-04-14T05:50:00.968Z,4.33
2019-04-14T05:52:27.360Z,4.90
2019-04-14T05:54:53.640Z,3.77
2019-04-14T05:57:19.855Z,4.73
2019-04-14T05:59:46.212Z,4.43
2019-04-14T06:02:11.691Z,4.60
2019-04-14T06:04:39.568Z,4.90
2019-04-14T06:07:04.456Z,4.73
2019-04-14T06:09:31.201Z,3.57
2019-04-14T06:11:57.935Z,4.53
2019-04-14T06:14:24.684Z,4.03
2019-04-14T06:16:51.403Z,4.70
2019-04-14T06:19:17.419Z,3.80
2019-04-14T06:21:44.150Z,5.20
2019-04-14T06:24:10.163Z,4.40
2019-04-14T06:26:36.145Z,4.80
2019-04-14T06:29:02.872Z,4.43
2019-04-14T06:31:29.579Z,4.23
2019-04-14T06:33:55.587Z,4.47
2019-04-14T06:36:21.580Z,3.07
2019-04-14T06:38:47.587Z,4.20
2019-04-14T06:41:14.317Z,3.87
2019-04-14T06:43:48.720Z,4.53
2019-04-14T06:46:07.055Z,5.00
2019-04-14T06:48:33.034Z,4.07
2019-04-14T06:50:59.036Z,4.33
2019-04-14T06:53:25.763Z,5.03
2019-04-14T06:55:54.992Z,4.43
2019-04-14T06:58:18.517Z,5.33
2019-04-14T07:00:45.292Z,4.27
2019-04-14T07:03:11.371Z,4.83
2019-04-14T07:05:37.391Z,4.90
2019-04-14T07:08:03.381Z,4.70
2019-04-14T07:10:29.371Z,4.73
2019-04-14T07:12:55.309Z,5.23
2019-04-14T07:15:22.054Z,4.47
2019-04-14T07:17:48.029Z,4.70
2019-04-14T07:20:14.041Z,4.67
2019-04-14T07:22:39.992Z,4.47
2019-04-14T07:25:05.969Z,4.23
2019-04-14T07:27:31.932Z,4.80
2019-04-14T07:29:57.906Z,4.80
2019-04-14T07:32:23.865Z,4.87
2019-04-14T07:34:49.840Z,4.77
2019-04-14T07:37:15.799Z,4.57
2019-04-14T07:39:41.794Z,5.03
2019-04-14T07:42:07.782Z,4.97
2019-04-14T07:44:33.734Z,4.70
2019-04-14T07:46:59.735Z,5.37
2019-04-14T07:49:26.442Z,4.60
2019-04-14T07:51:52.441Z,4.67
2019-04-14T07:54:18.420Z,4.67
2019-04-14T07:56:45.150Z,5.33
2019-04-14T07:59:11.170Z,4.37
2019-04-14T08:01:37.203Z,4.57
2019-04-14T08:04:03.911Z,4.60
2019-04-14T08:06:29.917Z,4.77
2019-04-14T08:08:55.881Z,5.00
2019-04-14T08:11:21.871Z,5.07
2019-04-14T08:13:47.841Z,4.90
2019-04-14T08:16:14.580Z,4.87
2019-04-14T08:18:41.295Z,4.60
2019-04-14T08:21:07.282Z,4.53
2019-04-14T08:23:33.267Z,4.03
2019-04-14T08:25:59.266Z,5.13
2019-04-14T08:28:25.230Z,4.30
2019-04-14T08:30:51.237Z,4.20
2019-04-14T08:33:17.949Z,5.07
2019-04-14T08:35:43.929Z,4.57
2019-04-14T08:38:09.936Z,4.57
2019-04-14T08:40:35.888Z,4.73
2019-04-14T08:43:01.883Z,5.13
2019-04-14T08:45:27.853Z,4.93
2019-04-14T08:47:53.849Z,4.77
2019-04-14T08:50:19.800Z,4.93
2019-04-14T08:52:45.783Z,5.27
2019-04-14T08:55:11.762Z,4.37
2019-04-14T08:57:37.783Z,4.83
2019-04-14T09:00:03.743Z,4.67
2019-04-14T09:02:30.473Z,5.27
2019-04-14T09:04:57.178Z,4.50
2019-04-14T09:07:23.163Z,4.70
2019-04-14T09:09:49.116Z,4.97
2019-04-14T09:12:16.143Z,4.80
2019-04-14T09:14:41.879Z,4.83
2019-04-14T09:17:07.870Z,4.77
2019-04-14T09:19:33.825Z,5.10
2019-04-14T09:21:59.822Z,4.93
2019-04-14T09:24:25.826Z,4.90
2019-04-14T09:26:52.522Z,4.90
2019-04-14T09:29:18.512Z,4.90
2019-04-14T09:31:44.515Z,5.23
2019-04-14T09:34:10.504Z,4.70
2019-04-14T09:36:36.478Z,5.30
2019-04-14T09:39:02.486Z,4.80
2019-04-14T09:41:28.471Z,5.17
2019-04-14T09:43:54.455Z,5.50
2019-04-14T09:46:20.451Z,5.57
2019-04-14T09:48:46.472Z,5.07
2019-04-14T09:51:12.440Z,5.67
2019-04-14T09:53:38.456Z,5.30
2019-04-14T09:56:04.410Z,5.60
2019-04-14T09:58:31.140Z,5.33
2019-04-14T10:00:57.109Z,4.90
2019-04-14T10:03:23.103Z,4.37
2019-04-14T10:05:49.848Z,4.57
2019-04-14T10:08:15.888Z,5.30
2019-04-14T10:10:41.907Z,4.70
2019-04-14T10:13:07.941Z,5.53
2019-04-14T10:15:33.910Z,4.87
2019-04-14T10:17:59.904Z,5.57
2019-04-14T10:20:25.852Z,5.80
2019-04-14T10:22:51.836Z,5.37
2019-04-14T10:25:17.821Z,5.50
2019-04-14T10:27:43.801Z,5.03
2019-04-14T10:30:09.805Z,4.80
2019-04-14T10:32:35.774Z,4.57
2019-04-14T10:35:01.813Z,5.37
2019-04-14T10:37:28.532Z,5.30
2019-04-14T10:39:54.569Z,4.70
2019-04-14T10:42:20.540Z,4.90
2019-04-14T10:44:46.531Z,5.10
2019-04-14T10:47:12.496Z,4.73
2019-04-14T10:49:38.503Z,4.73
2019-04-14T10:52:04.564Z,4.93
2019-04-14T10:54:30.543Z,4.97
2019-04-14T10:56:57.251Z,4.60
2019-04-14T10:59:23.246Z,5.37
2019-04-14T11:01:49.220Z,4.53
2019-04-14T11:04:15.202Z,4.73
2019-04-14T11:06:41.198Z,5.13
2019-04-14T11:09:07.175Z,5.77
2019-04-14T11:11:33.908Z,5.07
2019-04-14T11:13:59.876Z,4.60
2019-04-14T11:16:25.895Z,5.00
2019-04-14T11:18:51.849Z,4.83
2019-04-14T11:21:17.854Z,4.67
2019-04-14T11:23:43.815Z,5.17
2019-04-14T11:26:09.834Z,5.17
2019-04-14T11:28:35.814Z,4.80
2019-04-14T11:31:01.811Z,4.53
2019-04-14T11:33:28.545Z,4.77
2019-04-14T11:35:55.312Z,4.83
2019-04-14T11:38:21.292Z,4.57
2019-04-14T11:40:47.285Z,5.03
2019-04-14T11:43:13.275Z,5.17
2019-04-14T11:45:39.295Z,4.40
2019-04-14T11:48:05.288Z,4.60
2019-04-14T11:50:32.050Z,5.17
2019-04-14T11:52:58.756Z,5.27
2019-04-14T11:55:24.748Z,4.60
2019-04-14T11:57:50.706Z,4.63
2019-04-14T12:00:16.679Z,4.37
2019-04-14T12:02:42.666Z,4.00
2019-04-14T12:05:09.385Z,4.60
2019-04-14T12:07:35.371Z,4.87
2019-04-14T12:10:01.326Z,4.83
2019-04-14T12:12:27.313Z,4.80
2019-04-14T12:14:53.280Z,5.77
2019-04-14T12:17:19.274Z,5.30
2019-04-14T12:19:45.255Z,4.47
2019-04-14T12:22:11.260Z,4.57
2019-04-14T12:24:37.248Z,5.30
2019-04-14T12:27:03.219Z,5.40
2019-04-14T12:29:30.479Z,5.37
2019-04-14T12:31:57.330Z,5.07
2019-04-14T12:34:22.073Z,4.70
2019-04-14T12:36:48.065Z,4.73
2019-04-14T12:39:14.049Z,5.30
2019-04-14T12:41:40.151Z,5.40
2019-04-14T12:44:06.118Z,5.30
2019-04-14T12:46:32.868Z,5.33
2019-04-14T12:48:58.851Z,5.07
2019-04-14T12:51:25.599Z,5.20
2019-04-14T12:53:52.403Z,5.33
2019-04-14T12:56:18.376Z,5.30
2019-04-14T12:58:45.111Z,4.90
2019-04-14T13:01:11.871Z,4.80
2019-04-14T13:03:37.884Z,4.60
2019-04-14T13:06:04.606Z,5.30
2019-04-14T13:08:31.375Z,5.90
2019-04-14T13:10:57.410Z,5.27
2019-04-14T13:13:23.448Z,4.90
2019-04-14T13:15:49.405Z,5.23
2019-04-14T13:18:15.406Z,5.00
2019-04-14T13:20:41.388Z,5.10
2019-04-14T13:23:08.083Z,4.73
2019-04-14T13:25:34.083Z,4.57
2019-04-14T13:28:00.087Z,4.67
2019-04-14T13:30:26.081Z,4.80
2019-04-14T13:32:52.066Z,4.53
2019-04-14T13:35:18.075Z,4.67
2019-04-14T13:37:44.050Z,4.60
2019-04-14T13:40:10.060Z,4.37
2019-04-14T13:42:36.035Z,4.33
2019-04-14T13:45:02.033Z,4.60
2019-04-14T13:47:28.110Z,4.00
2019-04-14T13:49:54.110Z,4.53
2019-04-14T13:52:20.890Z,4.90
2019-04-14T13:54:46.884Z,4.70
2019-04-14T13:57:12.874Z,4.30
2019-04-14T13:59:39.602Z,4.03
2019-04-14T14:02:06.358Z,4.77
2019-04-14T14:04:32.347Z,5.30
2019-04-14T14:06:58.309Z,4.63
2019-04-14T14:09:24.332Z,3.93
2019-04-14T14:11:50.322Z,4.03
2019-04-14T14:14:16.316Z,3.77
2019-04-14T14:16:42.290Z,3.50
2019-04-14T14:19:08.312Z,4.13
2019-04-14T14:21:35.042Z,3.83
2019-04-14T14:24:01.754Z,4.10
2019-04-14T14:26:27.758Z,3.73
2019-04-14T14:28:53.725Z,3.80
2019-04-14T14:31:19.749Z,4.33
2019-04-14T14:33:45.704Z,4.20
2019-04-14T14:36:11.824Z,4.60
2019-04-14T14:38:37.912Z,4.40
2019-04-14T14:41:03.916Z,3.87
2019-04-14T14:43:29.901Z,4.00
2019-04-14T14:45:55.910Z,4.27
2019-04-14T14:48:21.893Z,4.30
2019-04-14T14:50:47.924Z,4.33
2019-04-14T14:53:14.675Z,4.20
2019-04-14T14:55:40.659Z,4.73
2019-04-14T14:58:06.629Z,4.20
2019-04-14T15:00:32.628Z,4.17
2019-04-14T15:02:58.597Z,4.53
2019-04-14T15:05:24.593Z,4.30
2019-04-14T15:07:50.568Z,4.17
2019-04-14T15:10:16.562Z,4.40
2019-04-14T15:12:42.541Z,3.93
2019-04-14T15:15:08.509Z,4.17
2019-04-14T15:17:34.509Z,3.83
2019-04-14T15:20:01.225Z,4.03
2019-04-14T15:22:27.209Z,4.07
2019-04-14T15:24:53.186Z,4.40
2019-04-14T15:27:19.197Z,3.70
2019-04-14T15:29:45.180Z,4.13
2019-04-14T15:32:11.194Z,4.20
2019-04-14T15:34:37.166Z,4.53
2019-04-14T15:37:03.156Z,4.37
2019-04-14T15:39:29.110Z,4.07
2019-04-14T15:41:55.110Z,4.00
2019-04-14T15:44:21.116Z,4.33
2019-04-14T15:46:47.111Z,4.10
2019-04-14T15:49:13.861Z,3.87
2019-04-14T15:51:39.905Z,4.03
2019-04-14T15:54:05.865Z,3.53
2019-04-14T15:56:31.878Z,4.33
2019-04-14T15:58:57.841Z,4.00
2019-04-14T16:01:24.568Z,4.70
2019-04-14T16:03:51.266Z,4.23
2019-04-14T16:06:17.230Z,4.77
2019-04-14T16:08:43.233Z,4.33
2019-04-14T16:11:09.196Z,3.83
2019-04-14T16:13:35.945Z,4.23
2019-04-14T16:16:01.913Z,4.10
2019-04-14T16:18:27.895Z,4.07
2019-04-14T16:20:53.862Z,4.30
2019-04-14T16:23:19.865Z,4.57
2019-04-14T16:25:45.821Z,4.40
2019-04-14T16:28:11.821Z,4.37
2019-04-14T16:30:37.789Z,4.17
2019-04-14T16:33:04.519Z,4.50
2019-04-14T16:35:30.478Z,4.47
2019-04-14T16:37:56.478Z,4.60
2019-04-14T16:40:22.490Z,4.47
2019-04-14T16:42:48.504Z,3.90
2019-04-14T16:45:14.506Z,4.77
2019-04-14T16:47:40.495Z,4.70
2019-04-14T16:50:06.492Z,4.30
2019-04-14T16:52:33.200Z,4.73
2019-04-14T16:54:59.196Z,4.97
2019-04-14T16:57:25.158Z,4.80
2019-04-14T16:59:51.165Z,4.83
2019-04-14T17:02:24.765Z,4.97
2019-04-14T17:04:51.343Z,4.17
2019-04-14T17:07:17.465Z,4.03
2019-04-14T17:09:44.211Z,3.93
2019-04-14T17:12:10.920Z,4.30
2019-04-14T17:14:36.910Z,4.40
2019-04-14T17:17:02.854Z,4.10
2019-04-14T17:19:28.870Z,4.23
2019-04-14T17:21:54.833Z,4.30
2019-04-14T17:24:21.592Z,3.97
2019-04-14T17:26:47.564Z,4.23
2019-04-14T17:29:13.565Z,4.17
2019-04-14T17:31:39.530Z,4.07
2019-04-14T17:34:06.284Z,4.23
2019-04-14T17:36:32.996Z,4.00
2019-04-14T17:38:58.978Z,3.90
2019-04-14T17:41:24.988Z,4.03
2019-04-14T17:43:50.950Z,3.90
2019-04-14T17:46:16.939Z,4.00
2019-04-14T17:48:42.893Z,3.60
2019-04-14T17:51:08.892Z,4.03
2019-04-14T17:53:34.886Z,4.20
2019-04-14T17:56:01.658Z,4.13
2019-04-14T17:58:27.630Z,4.17
2019-04-14T18:00:53.663Z,3.90
2019-04-14T18:03:19.625Z,4.17
2019-04-14T18:05:45.609Z,4.10
2019-04-14T18:08:11.591Z,4.30
2019-04-14T18:10:37.635Z,3.93
2019-04-14T18:13:03.587Z,4.30
2019-04-14T18:15:30.333Z,4.37
2019-04-14T18:17:56.333Z,4.30
2019-04-14T18:20:22.304Z,4.00
2019-04-14T18:22:48.300Z,4.13
2019-04-14T18:25:14.270Z,3.80
2019-04-14T18:27:40.278Z,4.20
2019-04-14T18:30:06.248Z,3.90
2019-04-14T18:32:32.276Z,4.03
2019-04-14T18:34:59.003Z,4.20
2019-04-14T18:37:25.057Z,4.40
2019-04-14T18:39:51.742Z,4.13
2019-04-14T18:42:17.735Z,4.80
2019-04-14T18:44:43.697Z,4.10
2019-04-14T18:47:09.692Z,4.70
2019-04-14T18:49:35.658Z,4.40
2019-04-14T18:52:01.686Z,4.97
2019-04-14T18:54:27.671Z,4.27
2019-04-14T18:56:53.715Z,5.17
2019-04-14T18:59:19.676Z,4.60
2019-04-14T19:01:46.393Z,4.97
2019-04-14T19:04:12.380Z,5.00
2019-04-14T19:06:38.388Z,4.70
2019-04-14T19:09:04.403Z,4.83
2019-04-14T19:11:30.376Z,5.80
2019-04-14T19:13:56.395Z,4.53
2019-04-14T19:16:22.383Z,4.50
2019-04-14T19:18:48.392Z,5.07
2019-04-14T19:21:15.110Z,5.23
2019-04-14T19:23:41.871Z,4.90
2019-04-14T19:26:08.571Z,5.53
2019-04-14T19:28:34.617Z,4.70
2019-04-14T19:31:00.591Z,5.03
2019-04-14T19:33:26.591Z,5.43
2019-04-14T19:35:52.578Z,4.70
2019-04-14T19:38:18.567Z,4.93
2019-04-14T19:40:44.558Z,4.50
2019-04-14T19:43:22.918Z,5.63
2019-04-14T19:45:36.562Z,4.93
2019-04-14T19:48:02.551Z,6.07
2019-04-14T19:50:28.547Z,5.30
2019-04-14T19:52:54.540Z,6.13
2019-04-14T19:55:20.933Z,7.17
2019-04-14T19:57:46.585Z,5.87
2019-04-14T20:00:13.356Z,6.47
2019-04-14T20:02:39.340Z,5.90
2019-04-14T20:05:05.357Z,5.93
2019-04-14T20:07:31.316Z,5.77
2019-04-14T20:09:58.052Z,5.50
2019-04-14T20:12:24.761Z,5.50
2019-04-14T20:14:50.756Z,6.60
2019-04-14T20:17:16.752Z,6.10
2019-04-14T20:19:43.482Z,5.73
2019-04-14T20:22:10.196Z,6.27
2019-04-14T20:24:36.208Z,6.37
2019-04-14T20:27:02.184Z,6.83
2019-04-14T20:29:28.185Z,6.23
2019-04-14T20:31:54.943Z,6.67
2019-04-14T20:34:20.947Z,6.30
2019-04-14T20:36:47.657Z,6.30
2019-04-14T20:39:13.652Z,6.27
2019-04-14T20:41:39.603Z,6.30
2019-04-14T20:44:05.587Z,6.17
2019-04-14T20:46:31.592Z,5.80
2019-04-14T20:48:58.308Z,6.23
2019-04-14T20:51:24.285Z,5.93
2019-04-14T20:53:50.245Z,5.57
2019-04-14T20:56:16.248Z,5.77
2019-04-14T20:58:42.244Z,6.47
2019-04-14T21:01:08.259Z,6.30
2019-04-14T21:03:34.436Z,6.47
2019-04-14T21:06:00.524Z,6.67
2019-04-14T21:08:26.545Z,6.70
2019-04-14T21:10:52.588Z,6.27
2019-04-14T21:13:18.563Z,6.27
2019-04-14T21:15:45.302Z,6.33
2019-04-14T21:18:12.014Z,6.33
2019-04-14T21:20:38.059Z,6.77
2019-04-14T21:23:04.082Z,5.60
2019-04-14T21:25:30.072Z,6.30
2019-04-14T21:27:56.083Z,6.13
2019-04-14T21:30:22.065Z,6.57
2019-04-14T21:32:48.812Z,6.40
2019-04-14T21:35:14.800Z,6.70
2019-04-14T21:37:40.802Z,6.13
2019-04-14T21:40:06.786Z,6.17
2019-04-14T21:42:33.523Z,5.77
2019-04-14T21:45:00.235Z,6.13
2019-04-14T21:47:26.241Z,6.37
2019-04-14T21:49:52.219Z,6.77
2019-04-14T21:52:18.227Z,5.70
2019-04-14T21:54:44.935Z,5.73
2019-04-14T21:57:10.941Z,5.33
2019-04-14T21:59:36.903Z,6.23
2019-04-14T22:02:03.641Z,6.97
2019-04-14T22:04:29.639Z,6.27
2019-04-14T22:06:55.654Z,5.87
2019-04-14T22:09:21.644Z,6.30
2019-04-14T22:11:47.600Z,7.00
2019-04-14T22:14:13.586Z,6.77
2019-04-14T22:16:39.542Z,6.50
2019-04-14T22:19:05.524Z,7.30
2019-04-14T22:21:32.229Z,6.13
2019-04-14T22:24:01.597Z,6.10
2019-04-14T22:26:26.386Z,6.93
2019-04-14T22:28:51.042Z,7.03
2019-04-14T22:31:17.727Z,6.57
2019-04-14T22:33:43.714Z,7.30
2019-04-14T22:36:10.413Z,7.13
2019-04-14T22:38:36.403Z,6.50
2019-04-14T22:41:02.375Z,7.20
2019-04-14T22:43:28.404Z,6.40
2019-04-14T22:45:54.368Z,6.43
2019-04-14T22:48:20.354Z,7.20
2019-04-14T22:50:46.328Z,7.07
2019-04-14T22:53:12.279Z,6.37
2019-04-14T22:55:38.275Z,6.63
2019-04-14T22:58:04.279Z,6.57
2019-04-14T23:00:30.270Z,6.47
2019-04-14T23:02:56.989Z,6.70
2019-04-14T23:05:22.983Z,6.80
2019-04-14T23:07:48.957Z,6.77
2019-04-14T23:10:15.690Z,6.43
2019-04-14T23:12:42.400Z,6.03
2019-04-14T23:15:08.642Z,6.07
2019-04-14T23:17:34.600Z,5.97
2019-04-14T23:20:00.592Z,6.77
2019-04-14T23:22:26.561Z,6.00
2019-04-14T23:24:52.644Z,6.03
2019-04-14T23:27:18.691Z,5.53
2019-04-14T23:29:45.438Z,5.20
2019-04-14T23:32:11.402Z,5.50
2019-04-14T23:34:37.401Z,5.83
2019-04-14T23:37:03.392Z,5.37
2019-04-14T23:39:30.130Z,5.77
2019-04-14T23:41:56.113Z,4.77
2019-04-14T23:44:22.104Z,5.53
2019-04-14T23:46:48.804Z,5.20
2019-04-14T23:49:15.552Z,5.37
2019-04-14T23:51:41.528Z,5.77
2019-04-14T23:54:07.501Z,4.93
2019-04-14T23:56:34.237Z,4.97
2019-04-14T23:59:00.953Z,5.07
